Time;durP1;ratioP1;P1;durP2;ratioP2;P2;SDS_P1;SDS_P2;PMS_P1;PMS_P2;Temp;Humidity;BMP_temperature;BMP_pressure;BME280_temperature;BME280_humidity;BME280_pressure;Samples;Min_cycle;Max_cycle;Signal;HPM_P1;HPM_P2
2022/08/11 00:01:24;;;;;;;5.70;3.28;;;;;;;23.62;41.60;102266.72;5056282;28;20025;-80
2022/08/11 00:03:57;;;;;;;6.63;3.78;;;;;;;23.70;41.90;102265.69;5056241;28;20021;-87
2022/08/11 00:06:27;;;;;;;6.57;3.38;;;;;;;23.68;41.63;102268.84;5056134;28;20479;-80
2022/08/11 00:08:54;;;;;;;5.10;3.42;;;;;;;23.66;41.70;102271.22;5056038;28;20469;-79
2022/08/11 00:11:30;;;;;;;4.85;3.30;;;;;;;23.65;41.79;102269.56;5056023;28;20110;-80
2022/08/11 00:13:56;;;;;;;5.10;3.42;;;;;;;23.68;41.47;102266.06;5055894;28;20114;-80
2022/08/11 00:16:24;;;;;;;13.52;4.85;;;;;;;23.66;41.45;102257.25;5055865;28;20049;-80
2022/08/11 00:18:55;;;;;;;8.23;3.42;;;;;;;23.59;41.77;102261.84;5054347;28;20025;-81
2022/08/11 00:21:23;;;;;;;5.55;3.58;;;;;;;23.57;41.97;102262.19;5055907;28;20045;-84
2022/08/11 00:23:55;;;;;;;7.30;3.42;;;;;;;23.40;42.31;102263.41;5055569;28;20017;-79
2022/08/11 00:26:22;;;;;;;6.32;3.05;;;;;;;23.37;41.93;102253.00;5055855;28;20476;-80
2022/08/11 00:28:50;;;;;;;5.78;3.25;;;;;;;23.35;41.89;102258.16;5054095;28;20037;-86
2022/08/11 00:31:32;;;;;;;5.38;3.55;;;;;;;23.30;42.30;102254.81;5055616;28;20032;-79
2022/08/11 00:34:00;;;;;;;7.97;3.67;;;;;;;23.17;42.33;102252.13;5057767;28;20087;-79
2022/08/11 00:36:29;;;;;;;6.00;3.30;;;;;;;23.09;42.64;102255.94;5075776;28;20031;-87
2022/08/11 00:39:03;;;;;;;5.57;3.13;;;;;;;23.00;42.80;102254.50;5075653;28;20079;-86
2022/08/11 00:41:54;;;;;;;9.18;3.55;;;;;;;22.96;42.72;102260.78;5075403;28;20063;-86
2022/08/11 00:44:35;;;;;;;6.18;3.28;;;;;;;22.96;43.00;102249.66;5075472;28;20024;-79
2022/08/11 00:47:23;;;;;;;4.95;3.70;;;;;;;22.95;42.83;102256.41;5075348;28;20686;-80
2022/08/11 00:50:13;;;;;;;4.75;3.25;;;;;;;22.98;42.95;102257.66;5075298;28;20425;-86
2022/08/11 00:52:48;;;;;;;5.80;3.42;;;;;;;22.83;42.70;102250.91;5075352;28;20028;-84
2022/08/11 00:55:50;;;;;;;7.28;3.42;;;;;;;22.85;42.87;102253.31;5057280;28;20036;-86
2022/08/11 00:58:40;;;;;;;7.57;3.50;;;;;;;22.82;43.01;102251.25;5075077;28;20031;-80
2022/08/11 01:01:19;;;;;;;7.85;3.88;;;;;;;22.78;42.94;102253.97;5074940;28;20391;-79
2022/08/11 01:04:12;;;;;;;9.30;4.47;;;;;;;22.89;42.47;102260.63;5075005;28;20024;-79
2022/08/11 01:07:02;;;;;;;8.82;3.72;;;;;;;22.65;43.24;102258.78;5057220;28;20183;-79
2022/08/11 01:09:49;;;;;;;7.70;3.85;;;;;;;22.57;43.50;102261.75;5075044;28;20059;-80
2022/08/11 01:12:48;;;;;;;7.03;4.55;;;;;;;22.58;43.07;102258.63;5075017;28;20103;-79
2022/08/11 01:15:14;;;;;;;11.18;3.65;;;;;;;22.51;43.01;102261.22;5074844;28;20470;-79
2022/08/11 01:18:43;;;;;;;7.25;4.13;;;;;;;22.47;43.27;102254.75;5074483;28;20032;-79
2022/08/11 01:21:30;;;;;;;5.97;4.32;;;;;;;22.58;42.86;102255.81;5032591;28;20033;-80
2022/08/11 01:24:37;;;;;;;4.47;3.58;;;;;;;22.58;43.08;102253.03;5053133;28;20086;-80
2022/08/11 01:27:26;;;;;;;9.75;4.03;;;;;;;22.56;42.94;102251.78;5012578;28;20033;-86
2022/08/11 01:30:29;;;;;;;5.90;3.92;;;;;;;22.56;42.72;102257.38;5052632;28;20033;-79
2022/08/11 01:33:23;;;;;;;6.95;4.47;;;;;;;22.48;43.15;102253.59;5054516;28;20043;-79
2022/08/11 01:36:17;;;;;;;9.60;3.83;;;;;;;22.46;42.94;102255.94;5054184;28;20484;-86
2022/08/11 01:39:01;;;;;;;9.45;4.35;;;;;;;22.48;42.90;102259.16;5054009;28;20120;-79
2022/08/11 01:45:23;;;;;;;7.72;3.65;;;;;;;22.40;42.91;102263.72;5052583;28;20074;-79
2022/08/11 01:48:04;;;;;;;6.05;3.95;;;;;;;22.37;43.14;102266.44;5034741;28;20021;-80
2022/08/11 01:50:30;;;;;;;6.88;4.40;;;;;;;22.33;43.15;102266.31;5057346;28;20025;-79
2022/08/11 01:53:21;;;;;;;6.28;4.13;;;;;;;22.23;43.41;102252.94;5074378;28;20052;-87
2022/08/11 01:56:14;;;;;;;7.40;3.90;;;;;;;22.20;43.47;102264.75;5074149;28;20125;-79
2022/08/11 01:58:58;;;;;;;6.05;4.07;;;;;;;22.10;43.65;102260.53;5073976;28;20033;-79
2022/08/11 02:01:51;;;;;;;5.45;3.92;;;;;;;22.03;43.56;102257.50;5074066;28;20391;-86
2022/08/11 02:04:25;;;;;;;7.10;4.03;;;;;;;22.06;43.44;102267.91;5073467;28;20035;-79
2022/08/11 02:07:03;;;;;;;6.60;3.80;;;;;;;22.06;43.52;102258.75;5055385;28;20021;-80
2022/08/11 02:09:59;;;;;;;5.50;3.88;;;;;;;22.05;43.62;102266.31;5073799;28;20027;-87
2022/08/11 02:12:45;;;;;;;5.75;3.88;;;;;;;22.04;43.51;102264.69;5072897;28;20035;-79
2022/08/11 02:15:35;;;;;;;6.97;3.67;;;;;;;22.03;43.78;102263.06;5072654;28;20035;-79
2022/08/11 02:18:20;;;;;;;5.38;3.55;;;;;;;22.02;43.70;102263.44;5073856;28;20078;-80
2022/08/11 02:24:02;;;;;;;5.85;3.92;;;;;;;22.14;43.28;102269.78;5073560;28;20093;-79
2022/08/11 02:26:42;;;;;;;7.07;4.60;;;;;;;21.98;43.63;102265.28;5073452;28;20521;-79
2022/08/11 02:29:27;;;;;;;7.35;4.60;;;;;;;21.96;43.67;102267.63;5073481;28;20150;-85
2022/08/11 02:35:11;;;;;;;7.28;4.65;;;;;;;21.98;43.47;102259.72;5073142;28;20102;-80
2022/08/11 02:38:00;;;;;;;5.65;4.20;;;;;;;21.98;43.27;102254.16;5073288;28;20082;-84
2022/08/11 02:41:03;;;;;;;6.22;4.10;;;;;;;21.98;43.58;102251.38;5054796;28;20045;-88
2022/08/11 02:43:57;;;;;;;6.25;4.78;;;;;;;21.86;43.43;102258.63;5055004;28;20029;-85
2022/08/11 02:46:57;;;;;;;6.97;4.68;;;;;;;21.87;43.59;102259.44;5073198;28;20043;-79
2022/08/11 02:49:53;;;;;;;6.93;4.43;;;;;;;21.94;43.59;102254.06;5055364;28;20437;-87
2022/08/11 02:52:30;;;;;;;5.32;3.53;;;;;;;21.92;43.46;102250.03;5073415;28;20039;-79
2022/08/11 02:55:05;;;;;;;5.75;4.45;;;;;;;21.84;43.47;102251.81;5073020;28;20390;-79
2022/08/11 02:57:42;;;;;;;6.57;4.93;;;;;;;21.86;43.42;102257.81;5055109;28;20082;-79
2022/08/11 03:00:11;;;;;;;6.97;5.55;;;;;;;21.87;43.32;102256.66;5073047;28;20036;-86
2022/08/11 03:02:47;;;;;;;6.53;4.55;;;;;;;21.85;43.47;102256.19;5073115;28;20484;-86
2022/08/11 03:05:44;;;;;;;7.05;4.88;;;;;;;21.89;43.45;102251.53;5072777;28;20037;-79
2022/08/11 03:08:17;;;;;;;7.28;4.95;;;;;;;21.77;43.60;102259.94;5072905;28;20064;-80
2022/08/11 03:16:43;;;;;;;7.80;5.05;;;;;;;21.76;43.62;102261.88;5072829;28;20478;-86
2022/08/11 03:17:36;;;;;;;11.40;4.55;;;;;;;21.63;44.11;102259.50;5062636;28;20043;-84
2022/08/11 03:20:23;;;;;;;7.25;4.78;;;;;;;21.63;43.79;102256.72;5052502;28;20029;-79
2022/08/11 03:23:23;;;;;;;5.93;4.30;;;;;;;21.68;43.62;102250.91;5052880;28;20151;-79
2022/08/11 03:26:00;;;;;;;9.07;5.80;;;;;;;21.67;43.72;102249.28;5050983;28;20376;-79
2022/08/11 03:28:50;;;;;;;8.57;5.00;;;;;;;21.63;43.87;102249.19;5052587;28;20029;-79
2022/08/11 03:31:57;;;;;;;7.75;5.05;;;;;;;21.46;44.08;102250.28;5052580;28;20479;-79
2022/08/11 03:34:27;;;;;;;7.25;5.45;;;;;;;21.42;44.13;102238.22;5051900;28;20076;-81
2022/08/11 03:37:49;;;;;;;6.20;5.28;;;;;;;21.46;44.27;102236.38;5052598;28;20490;-79
2022/08/11 03:41:41;;;;;;;6.25;5.30;;;;;;;21.54;43.83;102235.44;5059876;28;20029;-79
2022/08/11 03:43:27;;;;;;;8.07;5.75;;;;;;;21.55;43.99;102241.81;5052328;28;20060;-86
2022/08/11 03:46:19;;;;;;;8.10;6.05;;;;;;;21.57;43.88;102237.50;5051510;28;20025;-80
2022/08/11 03:49:08;;;;;;;6.65;5.25;;;;;;;21.56;43.88;102246.19;5052384;28;20044;-78
2022/08/11 03:51:51;;;;;;;6.45;5.43;;;;;;;21.54;43.90;102238.22;5052436;28;20028;-85
2022/08/11 03:54:23;;;;;;;5.78;4.70;;;;;;;21.55;43.96;102230.69;5052406;28;20052;-83
2022/08/11 03:57:14;;;;;;;6.47;5.60;;;;;;;21.51;43.90;102229.75;5052855;28;20049;-79
2022/08/11 04:00:02;;;;;;;10.07;5.88;;;;;;;21.52;43.94;102225.81;5052302;28;20479;-82
2022/08/11 04:02:51;;;;;;;8.35;5.90;;;;;;;21.50;43.91;102228.13;5052410;28;20514;-86
2022/08/11 04:05:32;;;;;;;10.50;5.72;;;;;;;21.39;44.19;102238.94;5070935;28;20085;-78
2022/08/11 04:08:36;;;;;;;5.68;4.30;;;;;;;21.43;43.95;102228.72;5072148;28;20025;-78
2022/08/11 04:11:04;;;;;;;9.55;5.28;;;;;;;21.38;44.02;102230.94;5063010;28;20043;-79
2022/08/11 04:17:18;;;;;;;6.88;5.45;;;;;;;21.34;44.42;102236.41;5072258;28;20090;-79
2022/08/11 04:20:04;;;;;;;8.38;6.07;;;;;;;21.33;44.22;102235.59;5071942;28;20032;-85
2022/08/11 04:22:53;;;;;;;7.95;5.28;;;;;;;21.36;44.23;102224.91;5054216;28;20025;-79
2022/08/11 04:25:50;;;;;;;8.70;5.45;;;;;;;21.36;44.35;102234.06;5071278;28;20020;-82
2022/08/11 04:28:19;;;;;;;7.85;5.80;;;;;;;21.41;43.99;102228.28;5051851;28;20403;-79
2022/08/11 04:31:02;;;;;;;7.90;5.07;;;;;;;21.39;44.39;102238.13;5071302;28;20081;-80
2022/08/11 04:34:12;;;;;;;10.98;5.45;;;;;;;21.45;44.14;102229.19;5072041;28;20027;-78
2022/08/11 04:39:39;;;;;;;9.88;6.35;;;;;;;21.41;43.97;102233.03;5075348;28;20607;-78
2022/08/11 04:45:49;;;;;;;11.43;6.03;;;;;;;21.36;44.10;102231.28;5075595;28;20039;-78
2022/08/11 05:03:50;;;;;;;12.18;5.93;;;;;;;21.16;44.86;102240.53;5075050;28;20116;-78
2022/08/11 05:06:34;;;;;;;14.65;6.82;;;;;;;21.14;44.71;102238.13;5056971;28;20099;-78
2022/08/11 05:09:15;;;;;;;7.47;6.00;;;;;;;21.12;45.00;102236.84;5074899;28;20029;-77
2022/08/11 05:12:05;;;;;;;8.55;6.55;;;;;;;21.11;45.07;102238.03;5054009;28;20028;-82
2022/08/11 05:34:54;;;;;;;8.77;6.03;;;;;;;21.37;44.74;102246.81;5054377;28;20171;-78
2022/08/11 05:37:33;;;;;;;9.38;5.45;;;;;;;21.22;45.20;102241.94;5054258;28;20089;-79
2022/08/11 05:57:20;;;;;;;11.80;6.35;;;;;;;22.35;44.11;102241.69;5073813;28;20120;-79
2022/08/11 05:59:47;;;;;;;10.75;5.68;;;;;;;22.48;43.96;102245.22;5035971;28;20085;-79
2022/08/11 06:02:14;;;;;;;9.00;6.40;;;;;;;22.60;43.85;102247.13;5054004;28;20021;-86
2022/08/11 06:04:40;;;;;;;8.95;5.85;;;;;;;22.57;44.09;102243.06;5036131;28;20464;-78
2022/08/11 06:07:10;;;;;;;10.05;5.80;;;;;;;22.35;45.02;102247.28;5053761;28;20021;-79
2022/08/11 06:09:49;;;;;;;21.85;6.80;;;;;;;22.24;45.66;102248.16;5053701;28;20432;-79
2022/08/11 06:12:19;;;;;;;10.98;5.63;;;;;;;22.38;45.32;102251.34;5053820;28;20020;-86
2022/08/11 06:14:45;;;;;;;7.25;5.45;;;;;;;22.56;45.02;102249.81;5053824;28;20082;-86
2022/08/11 06:17:12;;;;;;;11.82;6.45;;;;;;;22.61;45.26;102245.97;5053686;28;20640;-78
2022/08/11 06:19:46;;;;;;;13.88;6.30;;;;;;;22.62;45.14;102244.78;5053558;28;20383;-84
2022/08/11 06:22:12;;;;;;;15.60;6.35;;;;;;;22.80;44.71;102245.22;5071933;28;20025;-80
2022/08/11 06:24:41;;;;;;;8.45;5.65;;;;;;;22.83;45.16;102250.09;5072667;28;20029;-79
2022/08/11 06:27:07;;;;;;;11.07;6.50;;;;;;;23.02;44.84;102247.41;5073540;28;20020;-87
2022/08/11 06:29:39;;;;;;;12.27;7.32;;;;;;;23.17;44.69;102243.78;5055371;28;20033;-79
2022/08/11 06:32:05;;;;;;;12.70;6.93;;;;;;;23.28;44.42;102254.38;5073386;28;20146;-79
2022/08/11 06:34:49;;;;;;;12.98;6.70;;;;;;;23.42;44.77;102240.75;5051554;28;20400;-79
2022/08/11 06:37:42;;;;;;;8.50;6.07;;;;;;;23.52;44.52;102254.13;5052323;28;20021;-79
2022/08/11 06:40:36;;;;;;;32.20;9.48;;;;;;;23.64;44.96;102250.41;5052749;28;20379;-79
2022/08/11 06:43:22;;;;;;;9.48;6.93;;;;;;;23.83;44.63;102252.41;5052893;28;20048;-79
2022/08/11 06:46:06;;;;;;;9.93;6.03;;;;;;;23.85;44.40;102250.88;5052838;28;20032;-79
2022/08/11 06:48:33;;;;;;;19.95;7.68;;;;;;;23.93;44.54;102251.81;5053330;28;20498;-80
2022/08/11 06:51:13;;;;;;;10.23;6.38;;;;;;;24.03;44.44;102252.03;5053074;28;20040;-79
2022/08/11 06:53:50;;;;;;;9.18;6.78;;;;;;;24.12;44.90;102257.41;5053079;28;20021;-79
2022/08/11 07:02:15;;;;;;;16.55;6.68;;;;;;;24.46;44.60;102264.03;5052924;28;20040;-79
2022/08/11 07:04:47;;;;;;;14.73;6.60;;;;;;;24.58;44.60;102257.47;5052684;28;20062;-79
2022/08/11 07:16:28;;;;;;;12.48;7.30;;;;;;;25.02;44.70;102257.81;5052824;28;20032;-80
2022/08/11 07:30:13;;;;;;;11.15;6.25;;;;;;;25.49;44.98;102269.72;5052559;28;20083;-79
2022/08/11 07:32:55;;;;;;;20.13;7.07;;;;;;;25.58;45.76;102273.03;5052417;28;20450;-86
2022/08/11 07:35:34;;;;;;;15.85;7.60;;;;;;;25.69;46.06;102263.59;5065920;28;20064;-79
2022/08/11 07:38:10;;;;;;;12.75;6.43;;;;;;;25.86;45.76;102273.44;5072438;28;20475;-84
2022/08/11 07:40:37;;;;;;;14.35;8.07;;;;;;;26.06;45.43;102270.44;5070730;28;20136;-79
2022/08/11 07:43:05;;;;;;;43.92;12.25;;;;;;;26.18;45.56;102264.59;5072082;28;20020;-79
2022/08/11 07:53:47;;;;;;;11.57;8.43;;;;;;;26.45;46.91;102268.91;5072278;28;20028;-79
2022/08/11 07:56:14;;;;;;;11.35;8.38;;;;;;;26.60;46.66;102266.22;5071992;28;20486;-78
2022/08/11 08:18:04;;;;;;;13.55;7.82;;;;;;;26.98;46.60;102257.34;5076690;28;20043;-80
2022/08/11 08:20:35;;;;;;;11.25;8.52;;;;;;;27.04;46.61;102253.00;5076343;28;20059;-92
2022/08/11 08:23:03;;;;;;;21.23;9.10;;;;;;;27.09;46.75;102260.25;5076845;28;20133;-83
2022/08/11 08:25:31;;;;;;;14.13;8.02;;;;;;;27.26;46.53;102259.56;5076321;28;20021;-91
2022/08/11 08:27:59;;;;;;;14.93;7.65;;;;;;;27.31;46.33;102256.41;5077180;28;20021;-91
2022/08/11 08:33:18;;;;;;;38.60;12.82;;;;;;;27.39;46.10;102251.63;5075988;28;20035;-82
2022/08/11 08:35:44;;;;;;;15.00;8.60;;;;;;;27.53;45.62;102254.50;5062953;28;20048;-80
2022/08/11 08:38:12;;;;;;;15.95;8.75;;;;;;;27.49;45.95;102242.44;5040929;28;20105;-81
2022/08/11 08:40:41;;;;;;;15.60;7.70;;;;;;;27.60;45.36;102243.31;5060851;28;20028;-91
2022/08/11 08:43:14;;;;;;;8.63;6.72;;;;;;;27.70;45.41;102246.59;5059037;28;20115;-80
2022/08/11 08:45:41;;;;;;;14.25;6.40;;;;;;;27.73;45.22;102248.59;5057415;28;20103;-80
2022/08/11 08:48:15;;;;;;;11.10;5.50;;;;;;;27.74;44.70;102244.63;5057594;28;20016;-80
2022/08/11 08:53:50;;;;;;;11.35;5.82;;;;;;;27.90;44.06;102247.88;5058166;28;20112;-80
2022/08/11 08:56:17;;;;;;;10.50;5.50;;;;;;;27.92;44.08;102251.88;5058215;28;20039;-86
2022/08/11 08:58:46;;;;;;;8.40;5.65;;;;;;;27.97;43.76;102236.66;5039892;28;20119;-80
2022/08/11 09:01:14;;;;;;;;;;;;;;;28.22;42.82;102227.47;5059799;28;20028;-80
2022/08/11 09:03:39;;;;;;;12.68;5.88;;;;;;;28.27;42.93;102227.91;5040834;28;19925;-80
2022/08/11 09:06:06;;;;;;;20.52;6.75;;;;;;;28.28;42.83;102229.50;5058738;28;20043;-89
2022/08/11 09:08:34;;;;;;;7.55;4.60;;;;;;;28.35;42.17;102229.56;5058963;28;20041;-80
2022/08/11 09:13:46;;;;;;;7.00;4.60;;;;;;;28.57;41.84;102221.94;5058927;28;20085;-80
2022/08/11 09:16:14;;;;;;;33.30;9.48;;;;;;;28.64;41.83;102223.91;5064284;28;20031;-80
2022/08/11 09:18:43;;;;;;;11.07;5.60;;;;;;;28.77;41.43;102222.31;5075886;28;20031;-82
2022/08/11 09:21:13;;;;;;;13.48;6.00;;;;;;;28.80;40.87;102226.34;5074982;28;20086;-82
2022/08/11 09:29:10;;;;;;;9.15;4.40;;;;;;;29.06;39.77;102222.31;5084137;28;20464;-84
2022/08/11 09:31:36;;;;;;;7.25;4.00;;;;;;;29.14;39.41;102218.25;5082481;28;20042;-83
2022/08/11 09:34:02;;;;;;;6.57;4.38;;;;;;;29.22;39.74;102223.47;5085026;28;20475;-82
2022/08/11 09:42:01;;;;;;;20.40;5.45;;;;;;;29.48;38.49;102221.41;5080843;28;20066;-79
2022/08/11 09:47:14;;;;;;;6.90;3.63;;;;;;;29.57;37.95;102216.16;5081451;28;20394;-80
2022/08/11 09:49:44;;;;;;;11.95;4.22;;;;;;;29.59;37.52;102222.16;5064123;28;20035;-80
2022/08/11 09:52:13;;;;;;;5.78;3.90;;;;;;;29.78;37.44;102218.88;5085975;28;20064;-79
2022/08/11 09:54:41;;;;;;;41.35;7.35;;;;;;;29.73;36.95;102222.09;5084129;28;20028;-85
2022/08/11 09:59:52;;;;;;;9.63;4.18;;;;;;;29.82;37.33;102221.66;5083927;28;20540;-78
2022/08/11 10:02:24;;;;;;;10.27;3.83;;;;;;;29.85;36.65;102220.81;5080936;28;20024;-86
2022/08/11 10:07:00;;;;;;;10.95;4.18;;;;;;;29.94;36.38;102217.59;5071841;28;20048;-86
2022/08/11 10:07:49;;;;;;;10.00;3.97;;;;;;;29.99;35.94;102215.09;5082786;28;20030;-81
2022/08/11 10:10:21;;;;;;;7.75;3.70;;;;;;;30.05;35.70;102210.66;5079539;28;20012;-85
2022/08/11 10:12:56;;;;;;;11.20;4.15;;;;;;;30.03;35.80;102210.25;5077422;28;20775;-86
2022/08/11 10:15:38;;;;;;;16.20;4.20;;;;;;;30.22;35.45;102208.94;5072783;28;20063;-78
2022/08/11 10:21:04;;;;;;;14.63;4.70;;;;;;;30.07;36.57;102201.78;5065812;28;20044;-80
2022/08/11 10:34:39;;;;;;;15.57;4.55;;;;;;;30.58;35.26;102214.31;5056572;28;20521;-81
2022/08/11 10:37:06;;;;;;;5.18;3.70;;;;;;;30.60;35.33;102209.84;5070625;28;20115;-81
2022/08/11 10:39:37;;;;;;;6.25;4.55;;;;;;;30.60;34.98;102209.06;5043903;28;20032;-81
2022/08/11 10:44:52;;;;;;;5.95;3.78;;;;;;;30.69;35.52;102205.81;5055689;28;21858;-83
2022/08/11 10:47:34;;;;;;;9.85;4.78;;;;;;;30.75;35.32;102199.25;5056134;28;20035;-80
2022/08/11 10:58:48;;;;;;;20.67;5.45;;;;;;;30.98;35.42;102204.28;5026904;28;20696;-80
2022/08/11 11:01:26;;;;;;;5.55;3.90;;;;;;;31.02;34.82;102204.25;5027393;28;20371;-80
2022/08/11 11:04:21;;;;;;;8.30;3.78;;;;;;;31.13;34.40;102204.94;5022623;28;20044;-79
2022/08/11 11:07:28;;;;;;;5.97;3.85;;;;;;;31.13;35.25;102193.63;5054751;28;20067;-82
2022/08/11 11:10:01;;;;;;;5.82;3.22;;;;;;;31.08;35.76;102196.94;5052445;28;20032;-80
2022/08/11 11:18:10;;;;;;;4.55;3.85;;;;;;;31.28;35.39;102203.56;5054508;28;20572;-82
2022/08/11 11:21:00;;;;;;;6.47;3.85;;;;;;;31.25;34.73;102204.44;5046336;28;20060;-82
2022/08/11 11:23:40;;;;;;;7.03;4.47;;;;;;;31.15;35.39;102208.94;5055533;28;20031;-83
2022/08/11 11:26:13;;;;;;;;;;;;;;;31.14;34.69;102206.56;5074998;28;20028;-85
2022/08/11 11:28:47;;;;;;;6.05;4.53;;;;;;;31.29;35.19;102196.72;5078483;28;19923;-80
2022/08/11 11:31:32;;;;;;;5.25;4.35;;;;;;;31.29;34.94;102191.06;5080354;28;20024;-80
2022/08/11 11:34:11;;;;;;;8.27;4.70;;;;;;;31.31;35.52;102196.28;5076402;28;20883;-84
2022/08/11 11:36:50;;;;;;;8.07;4.80;;;;;;;31.18;35.22;102187.53;5077570;28;20509;-85
2022/08/11 11:39:20;;;;;;;18.55;8.60;;;;;;;31.34;35.34;102192.63;5077054;28;20288;-86
2022/08/11 11:41:47;;;;;;;13.30;5.80;;;;;;;31.27;34.66;102187.84;5063210;28;20383;-81
2022/08/11 11:44:14;;;;;;;15.02;6.65;;;;;;;31.12;33.89;102189.22;5072191;28;20017;-80
2022/08/11 11:46:44;;;;;;;9.13;6.88;;;;;;;31.07;33.61;102184.03;5079973;28;20024;-80
2022/08/11 11:49:11;;;;;;;11.38;7.10;;;;;;;31.16;33.75;102181.50;5080935;28;20103;-79
2022/08/11 11:51:37;;;;;;;8.40;5.95;;;;;;;31.27;33.87;102187.84;5075129;28;20090;-79
2022/08/11 11:54:04;;;;;;;18.00;5.65;;;;;;;31.25;33.62;102186.69;5076124;28;20027;-81
2022/08/11 11:56:31;;;;;;;9.95;6.53;;;;;;;31.32;33.00;102181.75;5076206;28;20094;-86
2022/08/11 12:01:43;;;;;;;20.90;5.97;;;;;;;31.31;33.25;102190.66;5056310;28;20152;-85
2022/08/11 12:04:11;;;;;;;17.00;5.90;;;;;;;31.29;33.33;102188.25;5074729;28;20082;-80
2022/08/11 12:06:37;;;;;;;6.47;4.05;;;;;;;31.40;33.11;102194.56;5075290;28;20033;-79
2022/08/11 12:09:04;;;;;;;5.25;3.30;;;;;;;31.48;33.13;102193.25;5075957;28;20497;-78
2022/08/11 12:14:19;;;;;;;5.65;3.72;;;;;;;31.60;33.23;102185.44;5075886;28;20458;-79
2022/08/11 12:16:47;;;;;;;6.82;3.38;;;;;;;31.49;33.22;102183.53;5075683;28;20029;-79
2022/08/11 12:19:20;;;;;;;97.93;17.40;;;;;;;31.41;33.36;102187.69;5057965;28;20032;-86
2022/08/11 12:27:21;;;;;;;12.50;4.20;;;;;;;31.48;33.42;102178.31;5086903;28;20039;-80
2022/08/11 12:29:50;;;;;;;4.05;2.63;;;;;;;31.74;33.27;102176.75;5081932;28;20073;-85
2022/08/11 12:32:17;;;;;;;11.32;4.95;;;;;;;31.58;33.57;102182.22;5082249;28;20027;-86
2022/08/11 12:34:43;;;;;;;4.40;2.65;;;;;;;31.46;34.36;102172.31;5083871;28;20032;-80
2022/08/11 12:37:11;;;;;;;12.30;3.67;;;;;;;31.56;33.86;102173.38;5068855;28;20031;-81
2022/08/11 12:45:26;;;;;;;5.30;3.15;;;;;;;31.48;34.29;102176.28;5075318;28;20117;-80
2022/08/11 12:54:05;;;;;;;5.80;2.95;;;;;;;31.54;33.65;102170.19;5075471;28;20035;-81
2022/08/11 13:05:06;;;;;;;6.15;3.40;;;;;;;31.48;33.88;102159.34;5075297;28;20079;-84
2022/08/11 13:07:33;;;;;;;7.78;2.75;;;;;;;31.46;33.73;102155.34;5075082;28;20048;-81
2022/08/11 13:10:02;;;;;;;10.15;3.65;;;;;;;31.48;32.87;102155.72;5074871;28;20032;-85
2022/08/11 13:12:49;;;;;;;3.15;2.40;;;;;;;31.26;32.83;102158.03;5060032;28;20500;-80
2022/08/11 13:15:18;;;;;;;6.15;3.10;;;;;;;31.57;32.31;102150.34;5056234;28;20032;-79
2022/08/11 13:17:47;;;;;;;8.30;2.95;;;;;;;31.67;32.55;102155.06;5068847;28;20413;-80
2022/08/11 13:20:16;;;;;;;4.30;2.50;;;;;;;31.67;32.40;102148.63;5074022;28;20025;-80
2022/08/11 13:22:44;;;;;;;3.97;2.10;;;;;;;31.82;32.16;102144.38;5074570;28;20378;-79
2022/08/11 13:25:13;;;;;;;4.85;2.28;;;;;;;31.74;32.29;102142.84;5074187;28;20285;-81
2022/08/11 13:27:39;;;;;;;7.88;3.08;;;;;;;31.73;31.39;102142.03;5074296;28;20386;-81
2022/08/11 13:32:50;;;;;;;2.85;1.73;;;;;;;31.76;31.61;102141.19;5073624;28;20044;-80
2022/08/11 13:35:17;;;;;;;7.68;2.03;;;;;;;31.77;31.34;102139.22;5072783;28;20044;-81
2022/08/11 13:37:46;;;;;;;6.13;1.85;;;;;;;31.79;31.13;102145.22;5073156;28;20455;-80
2022/08/11 13:40:15;;;;;;;7.43;2.30;;;;;;;32.11;30.84;102143.91;5074094;28;20031;-79
2022/08/11 13:42:42;;;;;;;6.38;1.90;;;;;;;32.10;30.69;102137.47;5072911;28;20264;-80
2022/08/11 13:45:09;;;;;;;5.32;2.00;;;;;;;32.14;30.71;102137.41;5073847;28;20033;-77
2022/08/11 13:47:37;;;;;;;4.85;2.45;;;;;;;32.25;30.21;102132.38;5074169;28;20035;-78
2022/08/11 13:50:05;;;;;;;33.95;5.55;;;;;;;32.08;30.83;102137.09;5074016;28;20103;-78
2022/08/11 13:52:32;;;;;;;5.72;2.25;;;;;;;32.29;30.81;102133.91;5074036;28;20024;-78
2022/08/11 13:54:59;;;;;;;28.60;5.05;;;;;;;32.32;31.02;102135.13;5073161;28;20558;-78
2022/08/11 13:57:25;;;;;;;5.05;2.28;;;;;;;32.18;31.33;102124.00;5073993;28;20066;-78
2022/08/11 13:59:55;;;;;;;13.18;3.38;;;;;;;32.23;31.27;102129.97;5055951;28;20505;-83
2022/08/11 14:02:28;;;;;;;8.35;2.38;;;;;;;32.35;31.21;102131.44;5073925;28;20453;-79
2022/08/11 14:04:59;;;;;;;5.80;2.10;;;;;;;32.19;31.47;102120.75;5073858;28;20020;-79
2022/08/11 14:07:36;;;;;;;15.23;2.90;;;;;;;32.42;31.23;102122.00;5073402;28;20122;-79
2022/08/11 14:10:03;;;;;;;11.45;2.47;;;;;;;32.12;31.04;102114.41;5072998;28;20027;-80
2022/08/11 14:15:26;;;;;;;3.38;1.60;;;;;;;32.40;30.78;102116.78;5068553;28;20043;-80
2022/08/11 14:18:02;;;;;;;3.58;2.35;;;;;;;32.51;30.75;102122.25;5038218;28;20025;-79
2022/08/11 14:22:05;;;;;;;4.78;1.67;;;;;;;32.44;30.76;102116.75;5055902;28;20028;-79
2022/08/11 14:23:38;;;;;;;4.47;1.35;;;;;;;32.64;29.75;102116.75;5065388;28;20025;-79
2022/08/11 14:28:56;;;;;;;3.22;1.45;;;;;;;32.82;29.54;102115.19;5073373;28;20090;-80
2022/08/11 14:31:26;;;;;;;7.75;2.47;;;;;;;32.58;29.37;102116.47;5072905;28;20060;-84
2022/08/11 14:33:54;;;;;;;10.25;2.08;;;;;;;32.83;29.26;102110.31;5073490;28;20025;-85
2022/08/11 14:36:23;;;;;;;2.30;1.20;;;;;;;32.98;29.13;102108.03;5055107;28;20063;-79
2022/08/11 14:38:50;;;;;;;47.53;8.07;;;;;;;33.02;29.17;102106.72;5053583;28;20036;-83
2022/08/11 14:47:05;;;;;;;5.47;1.45;;;;;;;32.95;29.24;102106.88;5073476;28;20509;-79
2022/08/11 14:49:35;;;;;;;18.77;4.78;;;;;;;32.98;29.26;102117.31;5073057;28;20036;-83
2022/08/11 14:52:08;;;;;;;3.90;1.40;;;;;;;32.93;29.17;102105.72;5083185;28;20040;-80
2022/08/11 14:57:21;;;;;;;5.18;1.63;;;;;;;33.00;29.31;102108.38;5093264;28;20074;-81
2022/08/11 14:59:49;;;;;;;3.90;1.60;;;;;;;33.01;28.61;102104.31;5074516;28;20486;-82
2022/08/11 15:05:03;;;;;;;3.25;1.55;;;;;;;33.06;28.82;102104.63;5072824;28;20136;-78
2022/08/11 15:07:31;;;;;;;5.40;1.70;;;;;;;32.99;28.73;102101.13;5072640;28;20017;-81
2022/08/11 15:09:59;;;;;;;5.43;1.70;;;;;;;32.94;28.54;102105.25;5071243;28;20039;-84
2022/08/11 15:12:26;;;;;;;3.58;1.38;;;;;;;32.96;28.70;102107.69;5072732;28;20086;-84
2022/08/11 15:17:38;;;;;;;4.13;1.90;;;;;;;33.24;28.27;102107.06;5052577;28;20031;-80
2022/08/11 15:25:39;;;;;;;7.55;2.17;;;;;;;32.97;28.96;102104.41;5073010;28;20031;-81
2022/08/11 15:39:31;;;;;;;2.53;1.40;;;;;;;32.99;29.23;102096.28;5070079;28;20075;-85
2022/08/11 15:47:48;;;;;;;3.78;2.08;;;;;;;32.93;29.73;102085.88;5073519;28;20485;-83
2022/08/11 15:50:29;;;;;;;2.67;1.33;;;;;;;32.75;29.77;102086.22;5054912;28;20395;-87
2022/08/11 15:53:01;;;;;;;6.28;2.22;;;;;;;32.75;29.68;102087.03;5068139;28;20060;-82
2022/08/11 15:55:30;;;;;;;3.72;1.63;;;;;;;32.87;29.02;102094.09;5072310;28;20021;-82
2022/08/11 16:06:22;;;;;;;4.85;1.40;;;;;;;32.54;30.01;102082.56;5073124;28;20059;-82
2022/08/11 16:08:50;;;;;;;5.55;1.50;;;;;;;32.55;29.84;102089.03;5054033;28;20029;-84
2022/08/11 16:11:17;;;;;;;7.55;2.03;;;;;;;32.65;29.74;102090.06;5071482;28;20044;-82
2022/08/11 16:16:13;;;;;;;3.78;1.73;;;;;;;32.66;29.19;102078.31;5072381;28;20040;-85
2022/08/11 16:18:53;;;;;;;9.98;1.80;;;;;;;32.66;28.96;102077.53;5053956;28;20032;-81
2022/08/11 16:21:24;;;;;;;14.27;2.72;;;;;;;32.87;28.61;102073.47;5072333;28;20032;-83
2022/08/11 16:23:56;;;;;;;5.85;1.80;;;;;;;32.75;28.41;102078.53;5071905;28;20021;-83
2022/08/11 16:26:24;;;;;;;2.90;1.27;;;;;;;32.92;28.18;102068.09;5053950;28;20032;-84
2022/08/11 16:28:54;;;;;;;3.22;1.40;;;;;;;32.90;28.49;102066.97;5053974;28;20398;-82
2022/08/11 16:31:25;;;;;;;5.28;1.70;;;;;;;33.09;28.51;102069.75;5054032;28;20505;-82
2022/08/11 16:33:54;;;;;;;3.97;1.38;;;;;;;32.97;28.14;102072.47;5056700;28;20479;-82
2022/08/11 16:39:11;;;;;;;8.85;1.77;;;;;;;32.73;28.64;102066.06;5075111;28;20093;-81
2022/08/11 16:47:15;;;;;;;5.20;2.03;;;;;;;32.76;29.28;102059.53;5075541;28;20047;-82